Alpine Village, CA

3:05 PM PDT on August 27, 2014 (GMT -0700)
Country Club Heights | Change Station
CLOSE
Current Station
Personal Weather Station
Location: South Lake Tahoe, CA
Elevation: 6500 ft
Nearby Weather Stations

Elev 6500 ft 38.86 °N, 120.01 °W | Updated 0 second ago

Clear
Clear
76.6 °F
Feels Like 77 °F
N
2.0
Wind Variable Wind from NNW
Gusts 3.0 mph

Today
High -- | Low -- °F
--% Chance of Precip.
Yesterday
High -- | Low -- °F
Precip. -- in
6:24 AM 7:36 PM
Waxing Crescent, 5% visible
Pressure 30.13 in
Visibility 10.0 miles
Clouds Clear
Heat Index 77 °F
Dew Point 36 °F
Humidity 23%
Rainfall 0.00 in
Snow Depth 0 in
UV 0.0 out of 12
Pollen 8.10 out of 12
Air Quality Not available.
Flu Activity Not available.
METAR KTVL 272153Z AUTO VRB04KT 10SM CLR 27/M01 A3030 RMK AO2 SLP203 T02671011

More Conditions Fewer Conditions

Pressure 30.13 in
Visibility 10.0 miles
Clouds Clear
Heat Index 77 °F
Dew Point 36 °F
Humidity 23%
Rainfall 0.00 in
Snow Depth 0 in
UV 0.0 out of 12
Pollen 8.10 out of 12
Air Quality Not available.
Flu Activity Not available.
METAR KTVL 272153Z AUTO VRB04KT 10SM CLR 27/M01 A3030 RMK AO2 SLP203 T02671011

More Conditions Fewer Conditions

10-Day Weather Forecast

Almanac

Astronomy

Aug. 27, 2014 Rise Set
Actual Time 6:24 AM PDT 7:36 PM PDT
Civil Twilight 5:56 AM PDT 8:04 PM PDT
Nautical Twilight 5:23 AM PDT 8:37 PM PDT
Astronomical Twilight 4:49 AM PDT 9:11 PM PDT
Moon 8:23 AM PDT 8:33 PM PDT
Length of Visible Light 14h 07m
Length of Day
13h 12m
Tomorrow will be 2m 23s shorter.
Waxing Crescent, 5% of the Moon is Illuminated
Today
Waxing Crescent
Sep 2
First Quarter
Sep 8
Full
Sep 15
Last Quarter
Sep 24
New

Today's Extremes

State Highs State Lows

Community

WunderPhotos

Upload Photos

1,747,798 photos uploaded!

Nearby

Snow Depth

Station Depth Elevation
Fallen Leaf 0 in 6300 ft
Rubicon #2 0 in 7500 ft
Summit Meadow 0 in 9122 ft
Leavitt Meadows 1 in 7200 ft
Leavitt Lake 0 in 9400 ft

Earthquake Activity

City Distance Mag. Time & Date
No recent earthquake activity has been reported nearby.
Minimum magnitude displayed is 2.5.

Coastal Water Temperatures

Place Temperature
No Stations Reporting

Nearby Weather Stations